sensor_id;sensor_type;location;lat;lon;timestamp;temperature;humidity
8178;DHT22;4130;48.740;9.132;2022-10-16T00:00:29;14.70;99.90
8178;DHT22;4130;48.740;9.132;2022-10-16T00:02:55;14.60;99.90
8178;DHT22;4130;48.740;9.132;2022-10-16T00:05:22;14.50;99.90
8178;DHT22;4130;48.740;9.132;2022-10-16T00:07:49;14.50;99.90
8178;DHT22;4130;48.740;9.132;2022-10-16T00:10:17;14.40;99.90
8178;DHT22;4130;48.740;9.132;2022-10-16T00:12:44;14.40;99.90
8178;DHT22;4130;48.740;9.132;2022-10-16T00:15:11;14.30;99.90
8178;DHT22;4130;48.740;9.132;2022-10-16T00:17:38;14.30;99.90
8178;DHT22;4130;48.740;9.132;2022-10-16T00:20:06;14.10;99.90
8178;DHT22;4130;48.740;9.132;2022-10-16T00:22:33;14.10;99.90
8178;DHT22;4130;48.740;9.132;2022-10-16T00:24:59;14.10;99.90
8178;DHT22;4130;48.740;9.132;2022-10-16T00:27:27;14.10;99.90
8178;DHT22;4130;48.740;9.132;2022-10-16T00:29:54;14.10;99.90
8178;DHT22;4130;48.740;9.132;2022-10-16T00:32:21;14.10;99.90
8178;DHT22;4130;48.740;9.132;2022-10-16T00:34:48;14.20;99.90
8178;DHT22;4130;48.740;9.132;2022-10-16T00:37:14;14.20;99.90
8178;DHT22;4130;48.740;9.132;2022-10-16T00:39:41;14.20;99.90
8178;DHT22;4130;48.740;9.132;2022-10-16T00:42:10;14.20;99.90
8178;DHT22;4130;48.740;9.132;2022-10-16T00:44:47;14.20;99.90
8178;DHT22;4130;48.740;9.132;2022-10-16T00:47:19;14.20;99.90
8178;DHT22;4130;48.740;9.132;2022-10-16T00:49:47;14.20;99.90
8178;DHT22;4130;48.740;9.132;2022-10-16T00:52:15;14.10;99.90
8178;DHT22;4130;48.740;9.132;2022-10-16T00:54:43;14.10;99.90
8178;DHT22;4130;48.740;9.132;2022-10-16T00:57:11;14.00;99.90
8178;DHT22;4130;48.740;9.132;2022-10-16T00:59:39;13.90;99.90
8178;DHT22;4130;48.740;9.132;2022-10-16T01:02:11;13.90;99.90
8178;DHT22;4130;48.740;9.132;2022-10-16T01:04:40;13.90;99.90
8178;DHT22;4130;48.740;9.132;2022-10-16T01:07:12;13.90;99.90
8178;DHT22;4130;48.740;9.132;2022-10-16T01:09:49;13.90;99.90
8178;DHT22;4130;48.740;9.132;2022-10-16T01:12:31;13.90;99.90
8178;DHT22;4130;48.740;9.132;2022-10-16T01:15:06;13.90;99.90
8178;DHT22;4130;48.740;9.132;2022-10-16T01:17:40;13.90;99.90
8178;DHT22;4130;48.740;9.132;2022-10-16T01:20:13;14.00;99.90
8178;DHT22;4130;48.740;9.132;2022-10-16T01:22:54;14.00;99.90
8178;DHT22;4130;48.740;9.132;2022-10-16T01:25:30;14.10;99.90
8178;DHT22;4130;48.740;9.132;2022-10-16T01:28:05;14.10;99.90
8178;DHT22;4130;48.740;9.132;2022-10-16T01:30:36;14.10;99.90
8178;DHT22;4130;48.740;9.132;2022-10-16T01:33:08;14.00;99.90
8178;DHT22;4130;48.740;9.132;2022-10-16T01:35:38;14.00;99.90
8178;DHT22;4130;48.740;9.132;2022-10-16T01:38:09;13.90;99.90
8178;DHT22;4130;48.740;9.132;2022-10-16T01:40:39;13.90;99.90
8178;DHT22;4130;48.740;9.132;2022-10-16T01:43:12;13.90;99.90
8178;DHT22;4130;48.740;9.132;2022-10-16T01:45:42;13.90;99.90
8178;DHT22;4130;48.740;9.132;2022-10-16T01:48:12;13.90;99.90
8178;DHT22;4130;48.740;9.132;2022-10-16T01:50:41;13.90;99.90
8178;DHT22;4130;48.740;9.132;2022-10-16T01:53:12;13.90;99.90
8178;DHT22;4130;48.740;9.132;2022-10-16T01:55:43;13.90;99.90
8178;DHT22;4130;48.740;9.132;2022-10-16T01:58:14;13.90;99.90
8178;DHT22;4130;48.740;9.132;2022-10-16T02:00:43;13.90;99.90
8178;DHT22;4130;48.740;9.132;2022-10-16T02:03:13;13.90;99.90
8178;DHT22;4130;48.740;9.132;2022-10-16T02:05:44;13.90;99.90
8178;DHT22;4130;48.740;9.132;2022-10-16T02:08:11;13.90;99.90
8178;DHT22;4130;48.740;9.132;2022-10-16T02:10:38;13.90;99.90
8178;DHT22;4130;48.740;9.132;2022-10-16T02:13:10;14.00;99.90
8178;DHT22;4130;48.740;9.132;2022-10-16T02:15:38;14.00;99.90
8178;DHT22;4130;48.740;9.132;2022-10-16T02:18:06;14.00;99.90
8178;DHT22;4130;48.740;9.132;2022-10-16T02:20:38;14.00;99.90
8178;DHT22;4130;48.740;9.132;2022-10-16T02:23:12;14.00;99.90
8178;DHT22;4130;48.740;9.132;2022-10-16T02:25:44;14.10;99.90
8178;DHT22;4130;48.740;9.132;2022-10-16T02:28:16;14.10;99.90
8178;DHT22;4130;48.740;9.132;2022-10-16T02:30:50;14.20;99.90
8178;DHT22;4130;48.740;9.132;2022-10-16T02:33:18;14.50;99.90
8178;DHT22;4130;48.740;9.132;2022-10-16T02:35:48;14.00;99.90
8178;DHT22;4130;48.740;9.132;2022-10-16T02:38:17;14.00;99.90
8178;DHT22;4130;48.740;9.132;2022-10-16T02:40:44;13.90;99.90
8178;DHT22;4130;48.740;9.132;2022-10-16T02:43:11;14.80;99.90
8178;DHT22;4130;48.740;9.132;2022-10-16T02:45:39;13.90;99.90
8178;DHT22;4130;48.740;9.132;2022-10-16T02:48:07;13.80;99.90
8178;DHT22;4130;48.740;9.132;2022-10-16T02:50:34;13.80;99.90
8178;DHT22;4130;48.740;9.132;2022-10-16T02:53:01;13.80;99.90
8178;DHT22;4130;48.740;9.132;2022-10-16T02:55:28;13.90;99.90
8178;DHT22;4130;48.740;9.132;2022-10-16T02:57:55;13.70;99.90
8178;DHT22;4130;48.740;9.132;2022-10-16T03:00:22;13.70;99.90
8178;DHT22;4130;48.740;9.132;2022-10-16T03:02:49;13.70;99.90
8178;DHT22;4130;48.740;9.132;2022-10-16T03:05:18;13.60;99.90
8178;DHT22;4130;48.740;9.132;2022-10-16T03:07:44;13.60;99.90
8178;DHT22;4130;48.740;9.132;2022-10-16T03:10:11;13.60;99.90
8178;DHT22;4130;48.740;9.132;2022-10-16T03:12:38;13.60;99.90
8178;DHT22;4130;48.740;9.132;2022-10-16T03:15:05;13.50;99.90
8178;DHT22;4130;48.740;9.132;2022-10-16T03:17:32;13.50;99.90
8178;DHT22;4130;48.740;9.132;2022-10-16T03:20:00;13.50;99.90
8178;DHT22;4130;48.740;9.132;2022-10-16T03:22:28;13.50;99.90
8178;DHT22;4130;48.740;9.132;2022-10-16T03:24:54;13.50;99.90
8178;DHT22;4130;48.740;9.132;2022-10-16T03:27:21;13.50;99.90
8178;DHT22;4130;48.740;9.132;2022-10-16T03:29:48;13.50;99.90
8178;DHT22;4130;48.740;9.132;2022-10-16T03:32:15;13.50;99.90
8178;DHT22;4130;48.740;9.132;2022-10-16T03:34:41;13.50;99.90
8178;DHT22;4130;48.740;9.132;2022-10-16T03:37:09;13.50;99.90
8178;DHT22;4130;48.740;9.132;2022-10-16T03:39:37;13.90;99.90
8178;DHT22;4130;48.740;9.132;2022-10-16T03:42:03;13.50;99.90
8178;DHT22;4130;48.740;9.132;2022-10-16T03:44:30;13.50;99.90
8178;DHT22;4130;48.740;9.132;2022-10-16T03:46:57;13.50;99.90
8178;DHT22;4130;48.740;9.132;2022-10-16T03:49:23;13.40;99.90
8178;DHT22;4130;48.740;9.132;2022-10-16T03:51:50;13.40;99.90
8178;DHT22;4130;48.740;9.132;2022-10-16T03:54:17;13.40;99.90
8178;DHT22;4130;48.740;9.132;2022-10-16T03:56:45;13.40;99.90
8178;DHT22;4130;48.740;9.132;2022-10-16T03:59:12;13.40;99.90
8178;DHT22;4130;48.740;9.132;2022-10-16T04:01:38;13.40;99.90
8178;DHT22;4130;48.740;9.132;2022-10-16T04:04:05;13.60;99.90
8178;DHT22;4130;48.740;9.132;2022-10-16T04:06:32;13.40;99.90
8178;DHT22;4130;48.740;9.132;2022-10-16T04:08:59;13.40;99.90
8178;DHT22;4130;48.740;9.132;2022-10-16T04:11:25;13.40;99.90
8178;DHT22;4130;48.740;9.132;2022-10-16T04:13:54;13.50;99.90
8178;DHT22;4130;48.740;9.132;2022-10-16T04:16:20;13.40;99.90
8178;DHT22;4130;48.740;9.132;2022-10-16T04:18:47;13.40;99.90
8178;DHT22;4130;48.740;9.132;2022-10-16T04:21:14;13.40;99.90
8178;DHT22;4130;48.740;9.132;2022-10-16T04:23:42;13.40;99.90
8178;DHT22;4130;48.740;9.132;2022-10-16T04:26:08;13.40;99.90
8178;DHT22;4130;48.740;9.132;2022-10-16T04:28:35;13.40;99.90
8178;DHT22;4130;48.740;9.132;2022-10-16T04:31:05;13.40;99.90
8178;DHT22;4130;48.740;9.132;2022-10-16T04:33:32;13.40;99.90
8178;DHT22;4130;48.740;9.132;2022-10-16T04:36:00;13.40;99.90
8178;DHT22;4130;48.740;9.132;2022-10-16T04:38:27;13.50;99.90
8178;DHT22;4130;48.740;9.132;2022-10-16T04:40:53;13.40;99.90
8178;DHT22;4130;48.740;9.132;2022-10-16T04:43:21;13.40;99.90
8178;DHT22;4130;48.740;9.132;2022-10-16T04:45:48;13.40;99.90
8178;DHT22;4130;48.740;9.132;2022-10-16T04:48:17;13.40;99.90
8178;DHT22;4130;48.740;9.132;2022-10-16T04:50:44;13.40;99.90
8178;DHT22;4130;48.740;9.132;2022-10-16T04:53:11;13.40;99.90
8178;DHT22;4130;48.740;9.132;2022-10-16T04:55:38;13.40;99.90
8178;DHT22;4130;48.740;9.132;2022-10-16T04:58:05;13.40;99.90
8178;DHT22;4130;48.740;9.132;2022-10-16T05:00:32;13.40;99.90
8178;DHT22;4130;48.740;9.132;2022-10-16T05:02:58;13.30;99.90
8178;DHT22;4130;48.740;9.132;2022-10-16T05:05:27;13.40;99.90
8178;DHT22;4130;48.740;9.132;2022-10-16T05:07:54;13.30;99.90
8178;DHT22;4130;48.740;9.132;2022-10-16T05:10:21;13.30;99.90
8178;DHT22;4130;48.740;9.132;2022-10-16T05:12:47;13.30;99.90
8178;DHT22;4130;48.740;9.132;2022-10-16T05:15:14;13.30;99.90
8178;DHT22;4130;48.740;9.132;2022-10-16T05:17:41;13.30;99.90
8178;DHT22;4130;48.740;9.132;2022-10-16T05:20:08;13.30;99.90
8178;DHT22;4130;48.740;9.132;2022-10-16T05:22:36;13.20;99.90
8178;DHT22;4130;48.740;9.132;2022-10-16T05:25:03;13.20;99.90
8178;DHT22;4130;48.740;9.132;2022-10-16T05:27:30;13.20;99.90
8178;DHT22;4130;48.740;9.132;2022-10-16T05:29:57;13.20;99.90
8178;DHT22;4130;48.740;9.132;2022-10-16T05:32:24;13.10;99.90
8178;DHT22;4130;48.740;9.132;2022-10-16T05:34:50;13.10;99.90
8178;DHT22;4130;48.740;9.132;2022-10-16T05:37:17;13.10;99.90
8178;DHT22;4130;48.740;9.132;2022-10-16T05:39:45;13.00;99.90
8178;DHT22;4130;48.740;9.132;2022-10-16T05:42:12;12.90;99.90
8178;DHT22;4130;48.740;9.132;2022-10-16T05:44:38;12.90;99.90
8178;DHT22;4130;48.740;9.132;2022-10-16T05:47:05;12.80;99.90
8178;DHT22;4130;48.740;9.132;2022-10-16T05:49:32;12.90;99.90
8178;DHT22;4130;48.740;9.132;2022-10-16T05:51:59;12.90;99.90
8178;DHT22;4130;48.740;9.132;2022-10-16T05:54:25;12.90;99.90
8178;DHT22;4130;48.740;9.132;2022-10-16T05:56:53;13.50;99.90
8178;DHT22;4130;48.740;9.132;2022-10-16T05:59:20;13.00;99.90
8178;DHT22;4130;48.740;9.132;2022-10-16T06:01:47;13.10;99.90
8178;DHT22;4130;48.740;9.132;2022-10-16T06:04:14;13.10;99.90
8178;DHT22;4130;48.740;9.132;2022-10-16T06:06:41;13.20;99.90
8178;DHT22;4130;48.740;9.132;2022-10-16T06:09:08;13.20;99.90
8178;DHT22;4130;48.740;9.132;2022-10-16T06:11:36;13.20;99.90
8178;DHT22;4130;48.740;9.132;2022-10-16T06:14:04;13.20;99.90
8178;DHT22;4130;48.740;9.132;2022-10-16T06:16:33;13.20;99.90
8178;DHT22;4130;48.740;9.132;2022-10-16T06:19:00;13.30;99.90
8178;DHT22;4130;48.740;9.132;2022-10-16T06:21:28;13.30;99.90
8178;DHT22;4130;48.740;9.132;2022-10-16T06:23:56;13.40;99.90
8178;DHT22;4130;48.740;9.132;2022-10-16T06:26:25;13.40;99.90
8178;DHT22;4130;48.740;9.132;2022-10-16T06:28:54;13.40;99.90
8178;DHT22;4130;48.740;9.132;2022-10-16T06:31:22;13.80;99.90
8178;DHT22;4130;48.740;9.132;2022-10-16T06:33:53;13.50;99.90
8178;DHT22;4130;48.740;9.132;2022-10-16T06:36:20;13.60;99.90
8178;DHT22;4130;48.740;9.132;2022-10-16T06:38:47;13.80;99.90
8178;DHT22;4130;48.740;9.132;2022-10-16T06:41:16;13.80;99.90
8178;DHT22;4130;48.740;9.132;2022-10-16T06:43:43;13.90;99.90
8178;DHT22;4130;48.740;9.132;2022-10-16T06:46:12;13.90;99.90
8178;DHT22;4130;48.740;9.132;2022-10-16T06:48:40;14.00;99.90
8178;DHT22;4130;48.740;9.132;2022-10-16T06:51:09;14.10;99.90
8178;DHT22;4130;48.740;9.132;2022-10-16T06:53:37;14.10;99.90
8178;DHT22;4130;48.740;9.132;2022-10-16T06:56:09;14.20;99.90
8178;DHT22;4130;48.740;9.132;2022-10-16T06:58:36;14.20;99.90
8178;DHT22;4130;48.740;9.132;2022-10-16T07:01:03;14.30;99.90
8178;DHT22;4130;48.740;9.132;2022-10-16T07:03:30;14.40;99.90
8178;DHT22;4130;48.740;9.132;2022-10-16T07:06:01;14.50;99.90
8178;DHT22;4130;48.740;9.132;2022-10-16T07:08:31;14.60;99.90
8178;DHT22;4130;48.740;9.132;2022-10-16T07:10:59;14.70;99.90
8178;DHT22;4130;48.740;9.132;2022-10-16T07:13:26;14.90;99.90
8178;DHT22;4130;48.740;9.132;2022-10-16T07:15:52;15.00;99.90
8178;DHT22;4130;48.740;9.132;2022-10-16T07:18:19;15.10;99.90
8178;DHT22;4130;48.740;9.132;2022-10-16T07:20:47;16.40;99.90
8178;DHT22;4130;48.740;9.132;2022-10-16T07:23:15;15.20;99.90
8178;DHT22;4130;48.740;9.132;2022-10-16T07:25:42;15.20;99.90
8178;DHT22;4130;48.740;9.132;2022-10-16T07:28:08;15.50;99.90
8178;DHT22;4130;48.740;9.132;2022-10-16T07:30:35;15.30;99.90
8178;DHT22;4130;48.740;9.132;2022-10-16T07:33:03;15.30;99.90
8178;DHT22;4130;48.740;9.132;2022-10-16T07:35:30;15.30;99.90
8178;DHT22;4130;48.740;9.132;2022-10-16T07:37:57;15.30;99.90
8178;DHT22;4130;48.740;9.132;2022-10-16T07:40:25;15.30;99.90
8178;DHT22;4130;48.740;9.132;2022-10-16T07:42:52;15.40;99.90
8178;DHT22;4130;48.740;9.132;2022-10-16T07:45:19;15.40;99.90
8178;DHT22;4130;48.740;9.132;2022-10-16T07:47:46;15.60;99.90
8178;DHT22;4130;48.740;9.132;2022-10-16T07:50:12;15.70;99.90
8178;DHT22;4130;48.740;9.132;2022-10-16T07:52:39;15.70;99.90
8178;DHT22;4130;48.740;9.132;2022-10-16T07:55:07;15.80;99.90
8178;DHT22;4130;48.740;9.132;2022-10-16T07:57:35;15.90;99.90
8178;DHT22;4130;48.740;9.132;2022-10-16T08:00:03;15.90;99.90
8178;DHT22;4130;48.740;9.132;2022-10-16T08:02:30;15.90;99.90
8178;DHT22;4130;48.740;9.132;2022-10-16T08:04:57;16.00;99.90
8178;DHT22;4130;48.740;9.132;2022-10-16T08:07:24;16.10;99.90
8178;DHT22;4130;48.740;9.132;2022-10-16T08:09:51;16.20;99.90
8178;DHT22;4130;48.740;9.132;2022-10-16T08:12:18;16.40;99.90
8178;DHT22;4130;48.740;9.132;2022-10-16T08:14:46;16.50;99.90
8178;DHT22;4130;48.740;9.132;2022-10-16T08:17:14;16.80;99.90
8178;DHT22;4130;48.740;9.132;2022-10-16T08:19:44;17.10;99.90
8178;DHT22;4130;48.740;9.132;2022-10-16T08:22:11;17.50;99.90
8178;DHT22;4130;48.740;9.132;2022-10-16T08:24:38;17.50;99.90
8178;DHT22;4130;48.740;9.132;2022-10-16T08:27:05;17.70;99.90
8178;DHT22;4130;48.740;9.132;2022-10-16T08:29:32;17.90;99.90
8178;DHT22;4130;48.740;9.132;2022-10-16T08:32:00;17.90;99.90
8178;DHT22;4130;48.740;9.132;2022-10-16T08:34:27;18.10;99.90
8178;DHT22;4130;48.740;9.132;2022-10-16T08:36:54;18.20;99.90
8178;DHT22;4130;48.740;9.132;2022-10-16T08:39:20;18.30;99.90
8178;DHT22;4130;48.740;9.132;2022-10-16T08:42:08;18.40;99.90
8178;DHT22;4130;48.740;9.132;2022-10-16T08:44:59;18.30;99.90
8178;DHT22;4130;48.740;9.132;2022-10-16T08:47:39;18.20;99.90
8178;DHT22;4130;48.740;9.132;2022-10-16T08:50:11;18.30;99.90
8178;DHT22;4130;48.740;9.132;2022-10-16T08:52:40;18.30;99.90
8178;DHT22;4130;48.740;9.132;2022-10-16T08:55:19;18.20;99.90
8178;DHT22;4130;48.740;9.132;2022-10-16T08:57:49;18.20;99.90
8178;DHT22;4130;48.740;9.132;2022-10-16T09:00:17;18.10;99.90
8178;DHT22;4130;48.740;9.132;2022-10-16T09:02:50;18.10;99.90
8178;DHT22;4130;48.740;9.132;2022-10-16T09:05:24;18.20;99.90
8178;DHT22;4130;48.740;9.132;2022-10-16T09:08:02;18.50;99.90
8178;DHT22;4130;48.740;9.132;2022-10-16T09:10:40;18.70;99.90
8178;DHT22;4130;48.740;9.132;2022-10-16T09:13:17;18.90;99.90
8178;DHT22;4130;48.740;9.132;2022-10-16T09:15:49;19.20;99.90
8178;DHT22;4130;48.740;9.132;2022-10-16T09:18:24;19.40;99.90
8178;DHT22;4130;48.740;9.132;2022-10-16T09:21:00;19.60;99.90
8178;DHT22;4130;48.740;9.132;2022-10-16T09:23:30;19.80;99.90
8178;DHT22;4130;48.740;9.132;2022-10-16T09:25:59;19.90;99.90
8178;DHT22;4130;48.740;9.132;2022-10-16T09:28:26;19.90;99.90
8178;DHT22;4130;48.740;9.132;2022-10-16T09:30:53;19.90;99.90
8178;DHT22;4130;48.740;9.132;2022-10-16T09:33:25;20.00;99.90
8178;DHT22;4130;48.740;9.132;2022-10-16T09:35:53;20.00;99.90
8178;DHT22;4130;48.740;9.132;2022-10-16T09:38:22;20.40;99.90
8178;DHT22;4130;48.740;9.132;2022-10-16T09:40:50;20.60;99.90
8178;DHT22;4130;48.740;9.132;2022-10-16T09:43:22;20.60;99.90
8178;DHT22;4130;48.740;9.132;2022-10-16T09:45:57;20.60;99.90
8178;DHT22;4130;48.740;9.132;2022-10-16T09:48:30;20.50;99.90
8178;DHT22;4130;48.740;9.132;2022-10-16T09:50:59;20.60;99.90
8178;DHT22;4130;48.740;9.132;2022-10-16T09:53:41;21.00;99.90
8178;DHT22;4130;48.740;9.132;2022-10-16T09:56:10;21.30;99.90
8178;DHT22;4130;48.740;9.132;2022-10-16T09:58:42;21.40;99.90
8178;DHT22;4130;48.740;9.132;2022-10-16T10:01:13;21.10;99.90
8178;DHT22;4130;48.740;9.132;2022-10-16T10:03:42;21.30;99.90
8178;DHT22;4130;48.740;9.132;2022-10-16T10:06:23;21.60;99.90
8178;DHT22;4130;48.740;9.132;2022-10-16T10:09:02;21.80;99.90
8178;DHT22;4130;48.740;9.132;2022-10-16T10:11:41;21.70;99.90
8178;DHT22;4130;48.740;9.132;2022-10-16T10:14:17;21.70;99.90
8178;DHT22;4130;48.740;9.132;2022-10-16T10:16:45;21.70;99.90
8178;DHT22;4130;48.740;9.132;2022-10-16T10:19:15;21.70;99.90
8178;DHT22;4130;48.740;9.132;2022-10-16T10:21:42;21.80;99.90
8178;DHT22;4130;48.740;9.132;2022-10-16T10:24:11;22.30;99.90
8178;DHT22;4130;48.740;9.132;2022-10-16T10:26:39;22.20;99.90
8178;DHT22;4130;48.740;9.132;2022-10-16T10:29:14;22.20;99.90
8178;DHT22;4130;48.740;9.132;2022-10-16T10:31:47;22.20;99.90
8178;DHT22;4130;48.740;9.132;2022-10-16T10:34:39;22.20;99.90
8178;DHT22;4130;48.740;9.132;2022-10-16T10:37:19;22.20;99.90
8178;DHT22;4130;48.740;9.132;2022-10-16T10:39:55;22.50;99.90
8178;DHT22;4130;48.740;9.132;2022-10-16T10:42:29;22.70;99.90
8178;DHT22;4130;48.740;9.132;2022-10-16T10:45:20;22.90;99.90
8178;DHT22;4130;48.740;9.132;2022-10-16T10:47:59;23.20;99.90
8178;DHT22;4130;48.740;9.132;2022-10-16T10:50:38;23.70;99.90
8178;DHT22;4130;48.740;9.132;2022-10-16T10:53:18;23.60;99.90
8178;DHT22;4130;48.740;9.132;2022-10-16T10:55:54;23.80;99.90
8178;DHT22;4130;48.740;9.132;2022-10-16T10:58:40;24.00;99.90
8178;DHT22;4130;48.740;9.132;2022-10-16T11:01:11;24.00;99.90
8178;DHT22;4130;48.740;9.132;2022-10-16T11:03:52;24.20;99.90
8178;DHT22;4130;48.740;9.132;2022-10-16T11:06:26;24.30;99.90
8178;DHT22;4130;48.740;9.132;2022-10-16T11:08:59;24.50;99.90
8178;DHT22;4130;48.740;9.132;2022-10-16T11:11:33;24.50;99.90
8178;DHT22;4130;48.740;9.132;2022-10-16T11:14:04;24.20;99.90
8178;DHT22;4130;48.740;9.132;2022-10-16T11:16:37;23.90;99.90
8178;DHT22;4130;48.740;9.132;2022-10-16T11:19:13;23.70;99.90
8178;DHT22;4130;48.740;9.132;2022-10-16T11:21:45;23.60;99.90
8178;DHT22;4130;48.740;9.132;2022-10-16T11:24:20;23.60;99.90
8178;DHT22;4130;48.740;9.132;2022-10-16T11:26:50;23.20;99.90
8178;DHT22;4130;48.740;9.132;2022-10-16T11:29:23;23.30;99.90
8178;DHT22;4130;48.740;9.132;2022-10-16T11:31:54;23.30;99.90
8178;DHT22;4130;48.740;9.132;2022-10-16T11:34:28;23.40;99.90
8178;DHT22;4130;48.740;9.132;2022-10-16T11:37:02;23.20;99.90
8178;DHT22;4130;48.740;9.132;2022-10-16T11:39:30;23.30;99.90
8178;DHT22;4130;48.740;9.132;2022-10-16T11:42:03;23.40;99.90
8178;DHT22;4130;48.740;9.132;2022-10-16T11:44:42;23.30;99.90
8178;DHT22;4130;48.740;9.132;2022-10-16T11:47:19;23.20;99.90
8178;DHT22;4130;48.740;9.132;2022-10-16T11:49:53;23.40;99.90
8178;DHT22;4130;48.740;9.132;2022-10-16T11:52:28;23.50;99.90
8178;DHT22;4130;48.740;9.132;2022-10-16T11:55:02;23.60;99.90
8178;DHT22;4130;48.740;9.132;2022-10-16T11:57:34;23.50;99.90
8178;DHT22;4130;48.740;9.132;2022-10-16T12:00:07;23.50;99.90
8178;DHT22;4130;48.740;9.132;2022-10-16T12:02:44;23.70;99.90
8178;DHT22;4130;48.740;9.132;2022-10-16T12:05:23;23.80;99.90
8178;DHT22;4130;48.740;9.132;2022-10-16T12:08:00;23.80;99.90
8178;DHT22;4130;48.740;9.132;2022-10-16T12:10:29;23.90;99.90
8178;DHT22;4130;48.740;9.132;2022-10-16T12:13:03;24.10;99.90
8178;DHT22;4130;48.740;9.132;2022-10-16T12:15:31;24.30;99.90
8178;DHT22;4130;48.740;9.132;2022-10-16T12:17:58;24.50;99.90
8178;DHT22;4130;48.740;9.132;2022-10-16T12:20:28;24.50;99.90
8178;DHT22;4130;48.740;9.132;2022-10-16T12:23:00;24.70;99.90
8178;DHT22;4130;48.740;9.132;2022-10-16T12:25:29;24.80;99.90
8178;DHT22;4130;48.740;9.132;2022-10-16T12:28:15;25.10;99.90
8178;DHT22;4130;48.740;9.132;2022-10-16T12:30:53;25.00;99.90
8178;DHT22;4130;48.740;9.132;2022-10-16T12:33:23;25.10;99.90
8178;DHT22;4130;48.740;9.132;2022-10-16T12:35:53;24.90;99.90
8178;DHT22;4130;48.740;9.132;2022-10-16T12:38:26;24.70;99.90
8178;DHT22;4130;48.740;9.132;2022-10-16T12:40:59;24.50;99.90
8178;DHT22;4130;48.740;9.132;2022-10-16T12:43:36;24.30;99.90
8178;DHT22;4130;48.740;9.132;2022-10-16T12:46:06;24.10;99.90
8178;DHT22;4130;48.740;9.132;2022-10-16T12:48:47;23.90;99.90
8178;DHT22;4130;48.740;9.132;2022-10-16T12:51:24;23.80;99.90
8178;DHT22;4130;48.740;9.132;2022-10-16T12:54:02;23.40;99.90
8178;DHT22;4130;48.740;9.132;2022-10-16T12:56:40;23.30;99.90
8178;DHT22;4130;48.740;9.132;2022-10-16T12:59:16;23.20;99.90
8178;DHT22;4130;48.740;9.132;2022-10-16T13:01:58;23.00;99.90
8178;DHT22;4130;48.740;9.132;2022-10-16T13:05:03;22.60;99.90
8178;DHT22;4130;48.740;9.132;2022-10-16T13:07:43;22.50;99.90
8178;DHT22;4130;48.740;9.132;2022-10-16T13:10:23;22.60;99.90
8178;DHT22;4130;48.740;9.132;2022-10-16T13:13:06;22.50;99.90
8178;DHT22;4130;48.740;9.132;2022-10-16T13:15:48;22.50;99.90
8178;DHT22;4130;48.740;9.132;2022-10-16T13:18:22;22.50;99.90
8178;DHT22;4130;48.740;9.132;2022-10-16T13:20:59;22.50;99.90
8178;DHT22;4130;48.740;9.132;2022-10-16T13:23:33;22.60;99.90
8178;DHT22;4130;48.740;9.132;2022-10-16T13:26:11;22.80;99.90
8178;DHT22;4130;48.740;9.132;2022-10-16T13:28:39;22.90;99.90
8178;DHT22;4130;48.740;9.132;2022-10-16T13:31:14;23.00;99.90
8178;DHT22;4130;48.740;9.132;2022-10-16T13:33:45;22.90;99.90
8178;DHT22;4130;48.740;9.132;2022-10-16T13:36:21;22.90;99.90
8178;DHT22;4130;48.740;9.132;2022-10-16T13:38:48;23.00;99.90
8178;DHT22;4130;48.740;9.132;2022-10-16T13:41:27;23.10;99.90
8178;DHT22;4130;48.740;9.132;2022-10-16T13:43:54;23.20;99.90
8178;DHT22;4130;48.740;9.132;2022-10-16T13:46:24;23.50;99.90
8178;DHT22;4130;48.740;9.132;2022-10-16T13:48:58;23.50;99.90
8178;DHT22;4130;48.740;9.132;2022-10-16T13:51:25;23.40;99.90
8178;DHT22;4130;48.740;9.132;2022-10-16T13:53:52;23.40;99.90
8178;DHT22;4130;48.740;9.132;2022-10-16T13:56:22;23.40;99.90
8178;DHT22;4130;48.740;9.132;2022-10-16T13:59:00;23.40;99.90
8178;DHT22;4130;48.740;9.132;2022-10-16T14:01:28;23.20;99.90
8178;DHT22;4130;48.740;9.132;2022-10-16T14:04:01;23.10;99.90
8178;DHT22;4130;48.740;9.132;2022-10-16T14:06:29;22.90;99.90
8178;DHT22;4130;48.740;9.132;2022-10-16T14:08:59;22.90;99.90
8178;DHT22;4130;48.740;9.132;2022-10-16T14:11:27;22.80;99.90
8178;DHT22;4130;48.740;9.132;2022-10-16T14:13:55;22.70;99.90
8178;DHT22;4130;48.740;9.132;2022-10-16T14:16:26;22.70;99.90
8178;DHT22;4130;48.740;9.132;2022-10-16T14:18:57;22.70;99.90
8178;DHT22;4130;48.740;9.132;2022-10-16T14:21:24;22.60;99.90
8178;DHT22;4130;48.740;9.132;2022-10-16T14:23:52;22.40;99.90
8178;DHT22;4130;48.740;9.132;2022-10-16T14:26:21;22.70;99.90
8178;DHT22;4130;48.740;9.132;2022-10-16T14:29:02;22.60;99.90
8178;DHT22;4130;48.740;9.132;2022-10-16T14:31:33;22.50;99.90
8178;DHT22;4130;48.740;9.132;2022-10-16T14:34:02;22.60;99.90
8178;DHT22;4130;48.740;9.132;2022-10-16T14:36:29;22.50;99.90
8178;DHT22;4130;48.740;9.132;2022-10-16T14:39:02;22.50;99.90
8178;DHT22;4130;48.740;9.132;2022-10-16T14:41:30;22.40;99.90
8178;DHT22;4130;48.740;9.132;2022-10-16T14:44:01;22.80;99.90
8178;DHT22;4130;48.740;9.132;2022-10-16T14:46:33;22.50;99.90
8178;DHT22;4130;48.740;9.132;2022-10-16T14:49:03;22.50;99.90
8178;DHT22;4130;48.740;9.132;2022-10-16T14:51:31;22.50;99.90
8178;DHT22;4130;48.740;9.132;2022-10-16T14:53:58;22.70;99.90
8178;DHT22;4130;48.740;9.132;2022-10-16T14:56:27;22.60;99.90
8178;DHT22;4130;48.740;9.132;2022-10-16T14:58:55;23.00;99.90
8178;DHT22;4130;48.740;9.132;2022-10-16T15:01:22;22.50;99.90
8178;DHT22;4130;48.740;9.132;2022-10-16T15:03:50;22.50;99.90
8178;DHT22;4130;48.740;9.132;2022-10-16T15:06:19;22.60;99.90
8178;DHT22;4130;48.740;9.132;2022-10-16T15:08:46;22.50;99.90
8178;DHT22;4130;48.740;9.132;2022-10-16T15:11:15;22.50;99.90
8178;DHT22;4130;48.740;9.132;2022-10-16T15:13:42;22.40;99.90
8178;DHT22;4130;48.740;9.132;2022-10-16T15:16:11;22.30;99.90
8178;DHT22;4130;48.740;9.132;2022-10-16T15:18:38;22.10;99.90
8178;DHT22;4130;48.740;9.132;2022-10-16T15:21:06;22.10;99.90
8178;DHT22;4130;48.740;9.132;2022-10-16T15:23:32;21.80;99.90
8178;DHT22;4130;48.740;9.132;2022-10-16T15:25:59;21.60;99.90
8178;DHT22;4130;48.740;9.132;2022-10-16T15:28:26;21.40;99.90
8178;DHT22;4130;48.740;9.132;2022-10-16T15:30:54;21.20;99.90
8178;DHT22;4130;48.740;9.132;2022-10-16T15:33:24;21.10;99.90
8178;DHT22;4130;48.740;9.132;2022-10-16T15:35:53;21.00;99.90
8178;DHT22;4130;48.740;9.132;2022-10-16T15:38:22;20.90;99.90
8178;DHT22;4130;48.740;9.132;2022-10-16T15:40:49;20.80;99.90
8178;DHT22;4130;48.740;9.132;2022-10-16T15:43:16;20.60;99.90
8178;DHT22;4130;48.740;9.132;2022-10-16T15:45:43;20.50;99.90
8178;DHT22;4130;48.740;9.132;2022-10-16T15:48:10;20.50;99.90
8178;DHT22;4130;48.740;9.132;2022-10-16T15:50:38;20.40;99.90
8178;DHT22;4130;48.740;9.132;2022-10-16T15:53:06;20.30;99.90
8178;DHT22;4130;48.740;9.132;2022-10-16T15:55:34;20.20;99.90
8178;DHT22;4130;48.740;9.132;2022-10-16T15:58:03;20.10;99.90
8178;DHT22;4130;48.740;9.132;2022-10-16T16:00:30;20.00;99.90
8178;DHT22;4130;48.740;9.132;2022-10-16T16:02:56;19.70;99.90
8178;DHT22;4130;48.740;9.132;2022-10-16T16:05:23;19.60;99.90
8178;DHT22;4130;48.740;9.132;2022-10-16T16:07:50;19.40;99.90
8178;DHT22;4130;48.740;9.132;2022-10-16T16:10:17;19.30;99.90
8178;DHT22;4130;48.740;9.132;2022-10-16T16:12:47;19.10;99.90
8178;DHT22;4130;48.740;9.132;2022-10-16T16:15:17;18.80;99.90
8178;DHT22;4130;48.740;9.132;2022-10-16T16:17:44;18.60;99.90
8178;DHT22;4130;48.740;9.132;2022-10-16T16:20:11;18.50;99.90